sensor_id;sensor_type;location;lat;lon;timestamp;P1;durP1;ratioP1;P2;durP2;ratioP2
59038;SDS011;44824;43.376;19.630;2023-03-01T00:01:29;30.08;;;16.17;;
59038;SDS011;44824;43.376;19.630;2023-03-01T00:03:56;29.75;;;16.60;;
59038;SDS011;44824;43.376;19.630;2023-03-01T00:06:22;30.98;;;16.02;;
59038;SDS011;44824;43.376;19.630;2023-03-01T00:08:48;30.75;;;17.50;;
59038;SDS011;44824;43.376;19.630;2023-03-01T00:11:19;29.98;;;16.98;;
59038;SDS011;44824;43.376;19.630;2023-03-01T00:13:46;29.25;;;15.75;;
59038;SDS011;44824;43.376;19.630;2023-03-01T00:16:23;27.25;;;16.10;;
59038;SDS011;44824;43.376;19.630;2023-03-01T00:24:43;34.53;;;21.05;;
59038;SDS011;44824;43.376;19.630;2023-03-01T00:27:09;33.75;;;19.90;;
59038;SDS011;44824;43.376;19.630;2023-03-01T00:29:35;33.05;;;20.65;;
59038;SDS011;44824;43.376;19.630;2023-03-01T00:32:01;34.97;;;19.83;;
59038;SDS011;44824;43.376;19.630;2023-03-01T00:34:27;30.40;;;18.40;;
59038;SDS011;44824;43.376;19.630;2023-03-01T00:36:53;28.38;;;17.33;;
59038;SDS011;44824;43.376;19.630;2023-03-01T00:39:19;27.67;;;16.45;;
59038;SDS011;44824;43.376;19.630;2023-03-01T00:41:45;27.92;;;16.17;;
59038;SDS011;44824;43.376;19.630;2023-03-01T00:44:11;28.35;;;17.92;;
59038;SDS011;44824;43.376;19.630;2023-03-01T00:46:37;29.17;;;17.45;;
59038;SDS011;44824;43.376;19.630;2023-03-01T00:49:16;28.48;;;17.50;;
59038;SDS011;44824;43.376;19.630;2023-03-01T00:51:42;28.63;;;16.13;;
59038;SDS011;44824;43.376;19.630;2023-03-01T00:54:08;25.17;;;15.40;;
59038;SDS011;44824;43.376;19.630;2023-03-01T00:56:34;29.43;;;15.77;;
59038;SDS011;44824;43.376;19.630;2023-03-01T00:59:00;25.73;;;15.60;;
59038;SDS011;44824;43.376;19.630;2023-03-01T01:01:28;27.83;;;16.35;;
59038;SDS011;44824;43.376;19.630;2023-03-01T01:06:54;28.83;;;15.60;;
59038;SDS011;44824;43.376;19.630;2023-03-01T01:09:20;29.98;;;15.70;;
59038;SDS011;44824;43.376;19.630;2023-03-01T01:11:47;26.38;;;15.55;;
59038;SDS011;44824;43.376;19.630;2023-03-01T01:14:14;23.77;;;13.68;;
59038;SDS011;44824;43.376;19.630;2023-03-01T01:16:43;23.40;;;14.18;;
59038;SDS011;44824;43.376;19.630;2023-03-01T01:22:13;24.02;;;13.48;;
59038;SDS011;44824;43.376;19.630;2023-03-01T01:24:42;23.58;;;13.88;;
59038;SDS011;44824;43.376;19.630;2023-03-01T01:27:08;24.38;;;14.13;;
59038;SDS011;44824;43.376;19.630;2023-03-01T01:29:34;25.27;;;15.02;;
59038;SDS011;44824;43.376;19.630;2023-03-01T01:32:00;25.23;;;15.32;;
59038;SDS011;44824;43.376;19.630;2023-03-01T01:34:35;23.90;;;14.55;;
59038;SDS011;44824;43.376;19.630;2023-03-01T01:37:01;25.77;;;14.55;;
59038;SDS011;44824;43.376;19.630;2023-03-01T01:39:28;25.33;;;14.80;;
59038;SDS011;44824;43.376;19.630;2023-03-01T01:41:54;30.47;;;16.27;;
59038;SDS011;44824;43.376;19.630;2023-03-01T01:44:21;33.67;;;18.27;;
59038;SDS011;44824;43.376;19.630;2023-03-01T01:49:39;31.15;;;18.17;;
59038;SDS011;44824;43.376;19.630;2023-03-01T01:52:08;32.53;;;18.92;;
59038;SDS011;44824;43.376;19.630;2023-03-01T01:54:42;29.35;;;17.40;;
59038;SDS011;44824;43.376;19.630;2023-03-01T01:57:11;29.48;;;17.33;;
59038;SDS011;44824;43.376;19.630;2023-03-01T01:59:38;31.25;;;16.73;;
59038;SDS011;44824;43.376;19.630;2023-03-01T02:02:07;24.63;;;15.68;;
59038;SDS011;44824;43.376;19.630;2023-03-01T02:10:40;31.35;;;18.10;;
59038;SDS011;44824;43.376;19.630;2023-03-01T02:13:07;30.77;;;16.63;;
59038;SDS011;44824;43.376;19.630;2023-03-01T02:15:33;29.00;;;17.90;;
59038;SDS011;44824;43.376;19.630;2023-03-01T02:18:00;32.30;;;19.75;;
59038;SDS011;44824;43.376;19.630;2023-03-01T02:23:30;32.78;;;18.95;;
59038;SDS011;44824;43.376;19.630;2023-03-01T02:28:28;30.92;;;17.25;;
59038;SDS011;44824;43.376;19.630;2023-03-01T02:30:55;28.73;;;17.73;;
59038;SDS011;44824;43.376;19.630;2023-03-01T02:33:39;27.95;;;16.20;;
59038;SDS011;44824;43.376;19.630;2023-03-01T02:38:52;26.85;;;14.95;;
59038;SDS011;44824;43.376;19.630;2023-03-01T02:41:21;27.88;;;15.70;;
59038;SDS011;44824;43.376;19.630;2023-03-01T02:43:48;25.27;;;14.45;;
59038;SDS011;44824;43.376;19.630;2023-03-01T02:46:16;28.15;;;17.23;;
59038;SDS011;44824;43.376;19.630;2023-03-01T02:48:47;28.77;;;18.10;;
59038;SDS011;44824;43.376;19.630;2023-03-01T02:57:07;47.25;;;27.20;;
59038;SDS011;44824;43.376;19.630;2023-03-01T02:59:37;59.00;;;33.15;;
59038;SDS011;44824;43.376;19.630;2023-03-01T03:02:06;48.95;;;29.70;;
59038;SDS011;44824;43.376;19.630;2023-03-01T03:04:33;52.47;;;28.90;;
59038;SDS011;44824;43.376;19.630;2023-03-01T03:06:59;55.93;;;29.83;;
59038;SDS011;44824;43.376;19.630;2023-03-01T03:09:25;49.05;;;29.10;;
59038;SDS011;44824;43.376;19.630;2023-03-01T03:11:54;47.63;;;28.10;;
59038;SDS011;44824;43.376;19.630;2023-03-01T03:14:20;45.80;;;26.83;;
59038;SDS011;44824;43.376;19.630;2023-03-01T03:16:47;44.00;;;27.20;;
59038;SDS011;44824;43.376;19.630;2023-03-01T03:19:14;49.40;;;28.88;;
59038;SDS011;44824;43.376;19.630;2023-03-01T03:24:45;60.47;;;34.95;;
59038;SDS011;44824;43.376;19.630;2023-03-01T03:27:11;63.55;;;38.10;;
59038;SDS011;44824;43.376;19.630;2023-03-01T03:29:37;60.75;;;35.00;;
59038;SDS011;44824;43.376;19.630;2023-03-01T03:32:03;61.22;;;34.33;;
59038;SDS011;44824;43.376;19.630;2023-03-01T03:34:29;63.92;;;35.70;;
59038;SDS011;44824;43.376;19.630;2023-03-01T03:39:59;61.17;;;35.05;;
59038;SDS011;44824;43.376;19.630;2023-03-01T03:42:25;55.50;;;33.50;;
59038;SDS011;44824;43.376;19.630;2023-03-01T03:44:51;60.30;;;34.50;;
59038;SDS011;44824;43.376;19.630;2023-03-01T03:47:17;63.75;;;35.63;;
59038;SDS011;44824;43.376;19.630;2023-03-01T03:49:43;59.00;;;35.80;;
59038;SDS011;44824;43.376;19.630;2023-03-01T04:10:58;46.90;;;24.27;;
59038;SDS011;44824;43.376;19.630;2023-03-01T04:13:43;38.75;;;21.80;;
59038;SDS011;44824;43.376;19.630;2023-03-01T04:16:24;35.50;;;19.92;;
59038;SDS011;44824;43.376;19.630;2023-03-01T04:18:51;32.95;;;19.33;;
59038;SDS011;44824;43.376;19.630;2023-03-01T04:24:04;36.97;;;21.30;;
59038;SDS011;44824;43.376;19.630;2023-03-01T04:26:31;38.38;;;21.92;;
59038;SDS011;44824;43.376;19.630;2023-03-01T04:29:06;39.35;;;24.10;;
59038;SDS011;44824;43.376;19.630;2023-03-01T04:31:32;39.85;;;23.48;;
59038;SDS011;44824;43.376;19.630;2023-03-01T04:33:59;36.77;;;21.00;;
59038;SDS011;44824;43.376;19.630;2023-03-01T04:39:44;35.22;;;20.30;;
59038;SDS011;44824;43.376;19.630;2023-03-01T04:42:13;35.90;;;20.35;;
59038;SDS011;44824;43.376;19.630;2023-03-01T04:44:39;38.83;;;21.30;;
59038;SDS011;44824;43.376;19.630;2023-03-01T04:47:05;35.20;;;19.63;;
59038;SDS011;44824;43.376;19.630;2023-03-01T04:49:32;38.63;;;21.45;;
59038;SDS011;44824;43.376;19.630;2023-03-01T04:51:58;34.53;;;20.52;;
59038;SDS011;44824;43.376;19.630;2023-03-01T04:54:29;42.95;;;22.73;;
59038;SDS011;44824;43.376;19.630;2023-03-01T04:56:55;37.78;;;24.08;;
59038;SDS011;44824;43.376;19.630;2023-03-01T04:59:21;39.45;;;23.38;;
59038;SDS011;44824;43.376;19.630;2023-03-01T05:01:48;36.58;;;24.95;;
59038;SDS011;44824;43.376;19.630;2023-03-01T05:04:14;41.45;;;24.35;;
59038;SDS011;44824;43.376;19.630;2023-03-01T05:09:47;38.33;;;21.33;;
59038;SDS011;44824;43.376;19.630;2023-03-01T05:12:14;37.45;;;21.90;;
59038;SDS011;44824;43.376;19.630;2023-03-01T05:14:40;32.25;;;20.95;;
59038;SDS011;44824;43.376;19.630;2023-03-01T05:17:07;33.92;;;20.45;;
59038;SDS011;44824;43.376;19.630;2023-03-01T05:19:33;34.25;;;20.00;;
59038;SDS011;44824;43.376;19.630;2023-03-01T05:25:03;31.80;;;19.98;;
59038;SDS011;44824;43.376;19.630;2023-03-01T05:27:29;28.52;;;17.85;;
59038;SDS011;44824;43.376;19.630;2023-03-01T05:29:55;17.75;;;10.82;;
59038;SDS011;44824;43.376;19.630;2023-03-01T05:32:21;19.52;;;12.02;;
59038;SDS011;44824;43.376;19.630;2023-03-01T05:34:47;27.25;;;14.88;;
59038;SDS011;44824;43.376;19.630;2023-03-01T05:40:21;57.38;;;31.50;;
59038;SDS011;44824;43.376;19.630;2023-03-01T05:42:50;70.75;;;34.75;;
59038;SDS011;44824;43.376;19.630;2023-03-01T05:45:16;62.10;;;32.78;;
59038;SDS011;44824;43.376;19.630;2023-03-01T05:47:43;57.53;;;33.42;;
59038;SDS011;44824;43.376;19.630;2023-03-01T05:55:39;57.95;;;35.15;;
59038;SDS011;44824;43.376;19.630;2023-03-01T05:58:07;58.60;;;34.33;;
59038;SDS011;44824;43.376;19.630;2023-03-01T06:00:34;57.05;;;34.28;;
59038;SDS011;44824;43.376;19.630;2023-03-01T06:05:32;65.32;;;37.38;;
59038;SDS011;44824;43.376;19.630;2023-03-01T06:11:02;84.90;;;47.70;;
59038;SDS011;44824;43.376;19.630;2023-03-01T06:13:28;91.35;;;47.78;;
59038;SDS011;44824;43.376;19.630;2023-03-01T06:15:54;80.40;;;44.38;;
59038;SDS011;44824;43.376;19.630;2023-03-01T06:18:39;72.68;;;43.47;;
59038;SDS011;44824;43.376;19.630;2023-03-01T06:21:08;79.43;;;44.38;;
59038;SDS011;44824;43.376;19.630;2023-03-01T06:26:20;72.30;;;43.17;;
59038;SDS011;44824;43.376;19.630;2023-03-01T06:28:47;79.85;;;46.03;;
59038;SDS011;44824;43.376;19.630;2023-03-01T06:31:13;75.15;;;44.95;;
59038;SDS011;44824;43.376;19.630;2023-03-01T06:33:42;84.25;;;49.72;;
59038;SDS011;44824;43.376;19.630;2023-03-01T06:36:09;66.97;;;41.38;;
59038;SDS011;44824;43.376;19.630;2023-03-01T06:38:41;67.07;;;42.20;;
59038;SDS011;44824;43.376;19.630;2023-03-01T06:41:08;63.92;;;39.88;;
59038;SDS011;44824;43.376;19.630;2023-03-01T06:43:40;65.30;;;42.20;;
59038;SDS011;44824;43.376;19.630;2023-03-01T06:46:06;65.18;;;39.17;;
59038;SDS011;44824;43.376;19.630;2023-03-01T06:48:32;58.28;;;39.08;;
59038;SDS011;44824;43.376;19.630;2023-03-01T06:50:59;65.97;;;40.85;;
59038;SDS011;44824;43.376;19.630;2023-03-01T06:56:22;84.85;;;47.88;;
59038;SDS011;44824;43.376;19.630;2023-03-01T06:58:48;71.60;;;44.25;;
59038;SDS011;44824;43.376;19.630;2023-03-01T07:01:15;68.15;;;41.40;;
59038;SDS011;44824;43.376;19.630;2023-03-01T07:03:41;68.78;;;41.97;;
59038;SDS011;44824;43.376;19.630;2023-03-01T07:06:09;65.40;;;38.97;;
59038;SDS011;44824;43.376;19.630;2023-03-01T07:08:35;62.97;;;38.90;;
59038;SDS011;44824;43.376;19.630;2023-03-01T07:11:04;64.25;;;40.35;;
59038;SDS011;44824;43.376;19.630;2023-03-01T07:13:31;70.35;;;41.53;;
59038;SDS011;44824;43.376;19.630;2023-03-01T07:15:57;63.58;;;40.85;;
59038;SDS011;44824;43.376;19.630;2023-03-01T07:18:23;62.95;;;38.92;;
59038;SDS011;44824;43.376;19.630;2023-03-01T07:35:07;72.75;;;43.20;;
59038;SDS011;44824;43.376;19.630;2023-03-01T07:37:33;70.25;;;40.50;;
59038;SDS011;44824;43.376;19.630;2023-03-01T07:39:59;81.70;;;47.65;;
59038;SDS011;44824;43.376;19.630;2023-03-01T07:58:28;63.75;;;40.40;;
59038;SDS011;44824;43.376;19.630;2023-03-01T08:00:54;61.88;;;40.03;;
59038;SDS011;44824;43.376;19.630;2023-03-01T08:09:26;51.88;;;34.55;;
59038;SDS011;44824;43.376;19.630;2023-03-01T08:11:55;51.08;;;32.33;;
59038;SDS011;44824;43.376;19.630;2023-03-01T08:19:38;37.88;;;26.48;;
59038;SDS011;44824;43.376;19.630;2023-03-01T08:22:19;35.50;;;23.58;;
59038;SDS011;44824;43.376;19.630;2023-03-01T08:30:23;19.65;;;12.13;;
59038;SDS011;44824;43.376;19.630;2023-03-01T08:33:20;20.83;;;12.38;;
59038;SDS011;44824;43.376;19.630;2023-03-01T08:41:02;22.40;;;13.07;;
59038;SDS011;44824;43.376;19.630;2023-03-01T08:46:25;16.98;;;10.35;;
59038;SDS011;44824;43.376;19.630;2023-03-01T08:49:20;14.02;;;8.80;;
59038;SDS011;44824;43.376;19.630;2023-03-01T08:52:05;14.68;;;8.05;;
59038;SDS011;44824;43.376;19.630;2023-03-01T08:54:58;14.32;;;7.78;;
59038;SDS011;44824;43.376;19.630;2023-03-01T08:57:42;15.15;;;8.25;;
59038;SDS011;44824;43.376;19.630;2023-03-01T09:00:22;15.87;;;9.00;;
59038;SDS011;44824;43.376;19.630;2023-03-01T09:02:50;20.42;;;12.90;;
59038;SDS011;44824;43.376;19.630;2023-03-01T09:05:22;23.33;;;13.50;;
59038;SDS011;44824;43.376;19.630;2023-03-01T09:07:48;28.05;;;16.98;;
59038;SDS011;44824;43.376;19.630;2023-03-01T09:10:36;25.98;;;15.82;;
59038;SDS011;44824;43.376;19.630;2023-03-01T09:13:08;27.25;;;19.00;;
59038;SDS011;44824;43.376;19.630;2023-03-01T09:15:45;31.90;;;19.73;;
59038;SDS011;44824;43.376;19.630;2023-03-01T09:18:27;32.60;;;23.35;;
59038;SDS011;44824;43.376;19.630;2023-03-01T09:20:53;34.60;;;22.02;;
59038;SDS011;44824;43.376;19.630;2023-03-01T09:25:58;63.67;;;42.60;;
59038;SDS011;44824;43.376;19.630;2023-03-01T09:36:49;40.63;;;25.40;;
59038;SDS011;44824;43.376;19.630;2023-03-01T10:00:54;19.92;;;11.15;;
59038;SDS011;44824;43.376;19.630;2023-03-01T10:03:31;19.50;;;11.25;;
59038;SDS011;44824;43.376;19.630;2023-03-01T10:06:27;18.40;;;12.05;;
59038;SDS011;44824;43.376;19.630;2023-03-01T10:11:57;23.17;;;15.93;;
59038;SDS011;44824;43.376;19.630;2023-03-01T10:19:54;54.65;;;36.90;;
59038;SDS011;44824;43.376;19.630;2023-03-01T10:22:27;31.05;;;23.25;;
59038;SDS011;44824;43.376;19.630;2023-03-01T10:24:54;24.65;;;17.50;;
59038;SDS011;44824;43.376;19.630;2023-03-01T10:30:05;27.40;;;17.98;;
59038;SDS011;44824;43.376;19.630;2023-03-01T10:35:32;37.03;;;27.13;;
59038;SDS011;44824;43.376;19.630;2023-03-01T10:38:06;27.85;;;17.35;;
59038;SDS011;44824;43.376;19.630;2023-03-01T10:43:40;21.83;;;14.93;;
59038;SDS011;44824;43.376;19.630;2023-03-01T10:51:27;40.53;;;31.00;;
59038;SDS011;44824;43.376;19.630;2023-03-01T10:54:02;36.35;;;26.00;;
59038;SDS011;44824;43.376;19.630;2023-03-01T11:22:53;36.70;;;25.33;;
59038;SDS011;44824;43.376;19.630;2023-03-01T11:25:54;34.72;;;24.27;;
59038;SDS011;44824;43.376;19.630;2023-03-01T11:28:33;29.95;;;21.98;;
59038;SDS011;44824;43.376;19.630;2023-03-01T11:31:18;33.63;;;23.95;;
59038;SDS011;44824;43.376;19.630;2023-03-01T11:41:33;30.83;;;22.08;;
59038;SDS011;44824;43.376;19.630;2023-03-01T11:44:09;32.42;;;25.50;;
59038;SDS011;44824;43.376;19.630;2023-03-01T11:49:37;32.40;;;21.63;;
59038;SDS011;44824;43.376;19.630;2023-03-01T11:52:18;24.08;;;18.23;;
59038;SDS011;44824;43.376;19.630;2023-03-01T12:19:15;50.97;;;36.15;;
59038;SDS011;44824;43.376;19.630;2023-03-01T12:56:13;22.85;;;15.95;;
59038;SDS011;44824;43.376;19.630;2023-03-01T13:12:57;12.43;;;7.43;;
59038;SDS011;44824;43.376;19.630;2023-03-01T13:15:57;14.43;;;10.02;;
59038;SDS011;44824;43.376;19.630;2023-03-01T13:23:52;13.32;;;8.18;;
59038;SDS011;44824;43.376;19.630;2023-03-01T13:34:54;12.77;;;8.20;;
59038;SDS011;44824;43.376;19.630;2023-03-01T13:42:47;12.48;;;8.35;;
59038;SDS011;44824;43.376;19.630;2023-03-01T13:48:27;11.82;;;8.07;;
59038;SDS011;44824;43.376;19.630;2023-03-01T13:51:05;11.68;;;8.30;;
59038;SDS011;44824;43.376;19.630;2023-03-01T13:53:45;14.45;;;8.70;;
59038;SDS011;44824;43.376;19.630;2023-03-01T13:56:16;18.02;;;10.07;;
59038;SDS011;44824;43.376;19.630;2023-03-01T14:01:32;16.65;;;11.40;;
59038;SDS011;44824;43.376;19.630;2023-03-01T14:03:58;13.98;;;9.02;;
59038;SDS011;44824;43.376;19.630;2023-03-01T14:06:30;12.90;;;7.90;;
59038;SDS011;44824;43.376;19.630;2023-03-01T14:09:04;12.13;;;7.60;;
59038;SDS011;44824;43.376;19.630;2023-03-01T14:16:35;11.95;;;7.82;;
59038;SDS011;44824;43.376;19.630;2023-03-01T14:19:16;11.20;;;7.15;;
59038;SDS011;44824;43.376;19.630;2023-03-01T14:24:30;15.30;;;10.52;;
59038;SDS011;44824;43.376;19.630;2023-03-01T14:27:15;13.50;;;8.52;;
59038;SDS011;44824;43.376;19.630;2023-03-01T14:29:57;17.23;;;11.30;;
59038;SDS011;44824;43.376;19.630;2023-03-01T14:32:25;18.30;;;13.32;;
59038;SDS011;44824;43.376;19.630;2023-03-01T14:41:24;13.75;;;9.57;;
59038;SDS011;44824;43.376;19.630;2023-03-01T14:44:21;15.07;;;9.35;;
59038;SDS011;44824;43.376;19.630;2023-03-01T14:46:54;13.07;;;8.43;;
59038;SDS011;44824;43.376;19.630;2023-03-01T14:49:25;12.73;;;8.25;;
59038;SDS011;44824;43.376;19.630;2023-03-01T14:54:54;19.70;;;9.05;;
59038;SDS011;44824;43.376;19.630;2023-03-01T15:13:22;13.00;;;7.47;;
59038;SDS011;44824;43.376;19.630;2023-03-01T15:18:21;14.27;;;8.73;;
59038;SDS011;44824;43.376;19.630;2023-03-01T15:23:47;15.48;;;8.90;;
59038;SDS011;44824;43.376;19.630;2023-03-01T15:26:24;14.55;;;8.30;;
59038;SDS011;44824;43.376;19.630;2023-03-01T15:28:54;28.60;;;16.97;;
59038;SDS011;44824;43.376;19.630;2023-03-01T15:31:27;15.75;;;10.73;;
59038;SDS011;44824;43.376;19.630;2023-03-01T15:34:07;19.10;;;11.73;;
59038;SDS011;44824;43.376;19.630;2023-03-01T15:39:40;17.00;;;10.80;;
59038;SDS011;44824;43.376;19.630;2023-03-01T17:31:54;19.00;;;11.50;;
59038;SDS011;44824;43.376;19.630;2023-03-01T18:35:34;28.27;;;18.65;;
59038;SDS011;44824;43.376;19.630;2023-03-01T19:28:51;43.72;;;30.05;;
59038;SDS011;44824;43.376;19.630;2023-03-01T19:39:07;35.83;;;26.15;;
59038;SDS011;44824;43.376;19.630;2023-03-01T19:44:56;29.42;;;19.85;;
59038;SDS011;44824;43.376;19.630;2023-03-01T19:58:35;58.83;;;40.40;;
59038;SDS011;44824;43.376;19.630;2023-03-01T20:01:22;69.43;;;47.97;;
59038;SDS011;44824;43.376;19.630;2023-03-01T20:03:48;114.55;;;79.20;;
59038;SDS011;44824;43.376;19.630;2023-03-01T20:06:24;106.88;;;74.85;;
59038;SDS011;44824;43.376;19.630;2023-03-01T20:08:56;80.47;;;56.67;;
59038;SDS011;44824;43.376;19.630;2023-03-01T20:11:35;64.65;;;45.78;;
59038;SDS011;44824;43.376;19.630;2023-03-01T20:17:35;52.20;;;37.70;;
59038;SDS011;44824;43.376;19.630;2023-03-01T20:28:42;62.97;;;43.25;;
59038;SDS011;44824;43.376;19.630;2023-03-01T20:34:04;43.25;;;30.60;;
59038;SDS011;44824;43.376;19.630;2023-03-01T20:36:36;37.28;;;24.15;;
59038;SDS011;44824;43.376;19.630;2023-03-01T20:44:32;109.78;;;76.00;;
59038;SDS011;44824;43.376;19.630;2023-03-01T20:47:06;106.70;;;76.50;;
59038;SDS011;44824;43.376;19.630;2023-03-01T20:49:39;109.25;;;76.53;;
59038;SDS011;44824;43.376;19.630;2023-03-01T20:52:13;103.97;;;72.85;;
59038;SDS011;44824;43.376;19.630;2023-03-01T20:54:39;118.57;;;68.10;;
59038;SDS011;44824;43.376;19.630;2023-03-01T21:15:56;49.58;;;34.17;;
59038;SDS011;44824;43.376;19.630;2023-03-01T21:18:22;57.67;;;40.03;;
59038;SDS011;44824;43.376;19.630;2023-03-01T21:20:54;58.90;;;40.20;;
59038;SDS011;44824;43.376;19.630;2023-03-01T21:23:36;62.13;;;42.70;;
59038;SDS011;44824;43.376;19.630;2023-03-01T21:28:34;67.70;;;45.75;;
59038;SDS011;44824;43.376;19.630;2023-03-01T21:33:56;67.57;;;44.67;;
59038;SDS011;44824;43.376;19.630;2023-03-01T21:39:10;65.25;;;45.28;;
59038;SDS011;44824;43.376;19.630;2023-03-01T21:41:39;78.38;;;55.55;;
59038;SDS011;44824;43.376;19.630;2023-03-01T22:44:50;78.28;;;48.25;;
59038;SDS011;44824;43.376;19.630;2023-03-01T22:58:42;69.72;;;45.30;;
59038;SDS011;44824;43.376;19.630;2023-03-01T23:01:17;72.67;;;48.13;;
59038;SDS011;44824;43.376;19.630;2023-03-01T23:04:06;72.15;;;48.30;;
59038;SDS011;44824;43.376;19.630;2023-03-01T23:06:42;62.22;;;41.45;;
59038;SDS011;44824;43.376;19.630;2023-03-01T23:09:43;57.75;;;39.00;;
59038;SDS011;44824;43.376;19.630;2023-03-01T23:17:45;62.75;;;43.38;;
59038;SDS011;44824;43.376;19.630;2023-03-01T23:20:26;72.55;;;47.78;;
59038;SDS011;44824;43.376;19.630;2023-03-01T23:23:11;79.30;;;50.33;;
59038;SDS011;44824;43.376;19.630;2023-03-01T23:28:50;77.03;;;50.78;;
59038;SDS011;44824;43.376;19.630;2023-03-01T23:33:52;96.05;;;60.78;;
